createdAt,value
2019-03-02T00:00:48.450Z,27.13
2019-03-02T00:03:51.610Z,29.93
2019-03-02T00:06:54.786Z,30.73
2019-03-02T00:09:58.003Z,28.43
2019-03-02T00:13:03.971Z,29.20
2019-03-02T00:16:07.511Z,31.30
2019-03-02T00:19:07.953Z,30.57
2019-03-02T00:22:10.977Z,31.73
2019-03-02T00:25:14.167Z,29.63
2019-03-02T00:28:17.367Z,30.43
2019-03-02T00:31:20.558Z,31.10
2019-03-02T00:34:23.743Z,30.87
2019-03-02T00:37:29.579Z,31.93
2019-03-02T00:40:30.415Z,27.97
2019-03-02T00:43:33.234Z,31.13
2019-03-02T00:46:36.431Z,28.40
2019-03-02T00:49:39.620Z,30.33
2019-03-02T00:52:42.814Z,26.93
2019-03-02T00:55:46.018Z,28.30
2019-03-02T00:58:49.191Z,29.27
2019-03-02T01:01:52.291Z,31.43
2019-03-02T01:04:57.860Z,32.20
2019-03-02T01:07:59.783Z,34.13
2019-03-02T01:11:01.679Z,36.83
2019-03-02T01:14:04.904Z,35.80
2019-03-02T01:17:08.063Z,29.37
2019-03-02T01:20:12.290Z,29.33
2019-03-02T01:23:15.479Z,32.13
2019-03-02T01:26:20.538Z,31.67
2019-03-02T01:29:21.760Z,28.80
2019-03-02T01:32:24.963Z,29.00
2019-03-02T01:35:28.071Z,30.90
2019-03-02T01:38:31.244Z,29.80
2019-03-02T01:41:34.347Z,31.63
2019-03-02T01:44:37.535Z,31.23
2019-03-02T01:47:40.726Z,30.33
2019-03-02T01:50:47.622Z,27.63
2019-03-02T01:53:47.134Z,30.37
2019-03-02T01:56:50.310Z,30.63
2019-03-02T01:59:53.497Z,27.07
2019-03-02T02:02:56.699Z,31.67
2019-03-02T02:05:59.892Z,27.57
2019-03-02T02:09:05.762Z,29.57
2019-03-02T02:12:07.202Z,27.57
2019-03-02T02:15:12.918Z,28.50
2019-03-02T02:18:16.051Z,30.37
2019-03-02T02:21:19.247Z,30.47
2019-03-02T02:24:24.925Z,29.47
2019-03-02T02:27:25.631Z,29.33
2019-03-02T02:30:28.745Z,27.93
2019-03-02T02:33:31.920Z,29.00
2019-03-02T02:36:35.029Z,30.03
2019-03-02T02:39:38.103Z,28.63
2019-03-02T02:42:43.311Z,27.80
2019-03-02T02:45:49.053Z,29.50
2019-03-02T02:48:47.684Z,29.03
2019-03-02T02:51:51.539Z,31.93
2019-03-02T02:54:57.597Z,27.50
2019-03-02T02:57:57.881Z,29.70
2019-03-02T03:01:01.077Z,31.70
2019-03-02T03:04:04.283Z,27.13
2019-03-02T03:07:12.508Z,30.00
2019-03-02T03:10:18.058Z,28.27
2019-03-02T03:13:21.235Z,29.03
2019-03-02T03:16:24.426Z,29.23
2019-03-02T03:19:31.118Z,27.90
2019-03-02T03:22:31.463Z,26.20
2019-03-02T03:25:34.627Z,26.30
2019-03-02T03:28:37.832Z,32.07
2019-03-02T03:31:41.010Z,33.13
2019-03-02T03:34:44.201Z,33.47
2019-03-02T03:37:51.238Z,35.00
2019-03-02T03:40:50.608Z,35.73
2019-03-02T03:43:53.795Z,38.57
2019-03-02T03:47:00.765Z,37.00
2019-03-02T03:50:00.226Z,38.40
2019-03-02T03:53:03.256Z,37.87
2019-03-02T03:56:06.361Z,35.23
2019-03-02T03:59:14.063Z,39.07
2019-03-02T04:02:12.756Z,38.63
2019-03-02T04:05:15.962Z,38.63
2019-03-02T04:08:19.132Z,36.97
2019-03-02T04:11:22.248Z,37.57
2019-03-02T04:14:25.419Z,37.73
2019-03-02T04:17:28.513Z,38.87
2019-03-02T04:20:35.299Z,41.00
2019-03-02T04:23:38.488Z,39.60
2019-03-02T04:26:41.671Z,40.50
2019-03-02T04:29:50.213Z,41.77
2019-03-02T04:32:47.967Z,38.33
2019-03-02T04:35:51.172Z,37.93
2019-03-02T04:38:54.361Z,38.27
2019-03-02T04:41:57.555Z,47.53
2019-03-02T04:45:01.716Z,35.93
2019-03-02T04:48:04.720Z,38.60
2019-03-02T04:51:07.047Z,39.37
2019-03-02T04:54:10.134Z,38.43
2019-03-02T04:57:13.375Z,38.77
2019-03-02T05:00:16.629Z,33.83
2019-03-02T05:03:19.837Z,37.63
2019-03-02T05:06:23.007Z,36.87
2019-03-02T05:09:26.211Z,40.13
2019-03-02T05:12:29.326Z,36.77
2019-03-02T05:15:32.480Z,36.03
2019-03-02T05:18:35.684Z,32.67
2019-03-02T05:21:39.809Z,36.43
2019-03-02T05:24:43.573Z,36.30
2019-03-02T05:27:45.262Z,37.83
2019-03-02T05:30:48.358Z,37.67
2019-03-02T05:33:51.558Z,36.63
2019-03-02T05:36:54.731Z,39.50
2019-03-02T05:39:57.827Z,38.70
2019-03-02T05:43:01.015Z,40.07
2019-03-02T05:46:04.116Z,44.27
2019-03-02T05:49:07.315Z,40.87
2019-03-02T05:52:10.507Z,45.43
2019-03-02T05:55:18.017Z,44.67
2019-03-02T05:58:17.167Z,41.53
2019-03-02T06:01:20.091Z,44.67
2019-03-02T06:04:23.287Z,43.33
2019-03-02T06:07:26.491Z,42.20
2019-03-02T06:10:29.672Z,46.37
2019-03-02T06:13:32.778Z,45.60
2019-03-02T06:16:35.967Z,48.30
2019-03-02T06:19:39.067Z,46.43
2019-03-02T06:22:42.286Z,48.33
2019-03-02T06:25:45.540Z,47.97
2019-03-02T06:28:48.762Z,47.57
2019-03-02T06:31:53.959Z,48.60
2019-03-02T06:34:57.068Z,49.60
2019-03-02T06:37:59.351Z,46.57
2019-03-02T06:41:02.564Z,42.80
2019-03-02T06:44:05.743Z,46.03
2019-03-02T06:47:08.975Z,51.17
2019-03-02T06:50:12.553Z,47.93
2019-03-02T06:53:15.831Z,49.67
2019-03-02T06:56:19.098Z,47.30
2019-03-02T06:59:22.375Z,46.67
2019-03-02T07:02:25.524Z,44.77
2019-03-02T07:05:29.832Z,47.97
2019-03-02T07:08:32.762Z,50.80
2019-03-02T07:11:35.152Z,50.67
2019-03-02T07:14:38.400Z,52.27
2019-03-02T07:17:50.836Z,50.07
2019-03-02T07:20:54.111Z,49.17
2019-03-02T07:23:57.316Z,51.53
2019-03-02T07:27:00.966Z,54.83
2019-03-02T07:30:04.620Z,48.83
2019-03-02T07:33:07.918Z,51.80
2019-03-02T07:36:10.918Z,57.23
2019-03-02T07:39:14.057Z,50.80
2019-03-02T07:42:17.310Z,50.70
2019-03-02T07:45:20.508Z,49.20
2019-03-02T07:48:23.683Z,49.53
2019-03-02T07:51:26.889Z,50.50
2019-03-02T07:54:30.111Z,54.97
2019-03-02T07:57:33.273Z,55.07
2019-03-02T08:00:37.881Z,55.67
2019-03-02T08:03:39.682Z,50.13
2019-03-02T08:06:42.872Z,47.73
2019-03-02T08:09:46.043Z,51.23
2019-03-02T08:12:49.263Z,53.90
2019-03-02T08:15:52.472Z,54.13
2019-03-02T08:18:55.747Z,53.63
2019-03-02T08:21:58.939Z,48.27
2019-03-02T08:25:02.138Z,50.10
2019-03-02T08:28:06.776Z,48.70
2019-03-02T08:31:08.993Z,52.60
2019-03-02T08:34:11.715Z,48.93
2019-03-02T08:37:16.534Z,48.53
2019-03-02T08:40:19.265Z,49.90
2019-03-02T08:43:21.205Z,48.30
2019-03-02T08:46:24.391Z,48.97
2019-03-02T08:49:27.677Z,45.80
2019-03-02T08:52:31.908Z,49.30
2019-03-02T08:55:35.135Z,48.80
2019-03-02T08:58:38.288Z,43.80
2019-03-02T09:01:41.587Z,42.27
2019-03-02T09:04:47.244Z,43.87
2019-03-02T09:07:48.079Z,43.37
2019-03-02T09:10:51.284Z,42.13
2019-03-02T09:13:54.503Z,40.93
2019-03-02T09:16:57.662Z,42.23
2019-03-02T09:20:01.005Z,38.60
2019-03-02T09:23:04.043Z,41.00
2019-03-02T09:26:07.352Z,36.93
2019-03-02T09:29:10.549Z,38.37
2019-03-02T09:32:14.158Z,41.53
2019-03-02T09:35:17.257Z,37.83
2019-03-02T09:38:20.959Z,35.27
2019-03-02T09:41:25.361Z,41.37
2019-03-02T09:44:26.467Z,40.97
2019-03-02T09:47:29.721Z,36.93
2019-03-02T09:50:32.907Z,38.63
2019-03-02T09:53:36.117Z,38.77
2019-03-02T09:56:39.287Z,37.43
2019-03-02T09:59:45.440Z,36.63
2019-03-02T10:02:46.420Z,31.57
2019-03-02T10:05:49.868Z,36.20
2019-03-02T10:08:51.849Z,39.67
2019-03-02T10:11:55.146Z,36.87
2019-03-02T10:15:00.769Z,37.83
2019-03-02T10:18:01.556Z,37.97
2019-03-02T10:21:04.839Z,36.93
2019-03-02T10:24:08.059Z,36.37
2019-03-02T10:27:11.251Z,37.73
2019-03-02T10:30:16.141Z,35.03
2019-03-02T10:33:19.255Z,38.60
2019-03-02T10:36:25.780Z,37.00
2019-03-02T10:39:29.082Z,36.83
2019-03-02T10:42:31.903Z,36.27
2019-03-02T10:45:33.664Z,36.57
2019-03-02T10:48:35.320Z,32.13
2019-03-02T10:51:38.731Z,33.30
2019-03-02T10:54:41.931Z,33.63
2019-03-02T10:57:45.137Z,36.57
2019-03-02T11:00:48.308Z,32.73
2019-03-02T11:03:51.622Z,29.67
2019-03-02T11:07:00.988Z,31.27
2019-03-02T11:10:12.867Z,31.00
2019-03-02T11:13:51.866Z,28.07
2019-03-02T11:16:58.470Z,32.67
2019-03-02T11:20:07.115Z,30.90
2019-03-02T11:23:19.974Z,30.67
2019-03-02T11:26:26.561Z,31.53
2019-03-02T11:29:50.959Z,30.47
2019-03-02T11:32:56.969Z,30.73
2019-03-02T11:36:41.043Z,30.87
2019-03-02T11:40:50.382Z,27.13
2019-03-02T11:43:59.556Z,26.90
2019-03-02T11:47:06.939Z,27.00
2019-03-02T11:50:16.099Z,29.07
2019-03-02T11:53:24.181Z,27.90
2019-03-02T11:56:30.743Z,28.83
2019-03-02T11:59:42.119Z,29.63
2019-03-02T12:02:50.052Z,30.67
2019-03-02T12:06:05.768Z,27.27
2019-03-02T12:09:10.116Z,26.73
2019-03-02T12:12:51.249Z,28.93
2019-03-02T12:15:56.276Z,25.13
2019-03-02T12:19:05.375Z,25.37
2019-03-02T12:23:16.046Z,24.97
2019-03-02T12:26:30.323Z,23.87
2019-03-02T12:29:37.638Z,26.83
2019-03-02T12:32:54.679Z,26.60
2019-03-02T12:36:06.257Z,25.40
2019-03-02T12:39:13.619Z,28.67
2019-03-02T12:42:20.918Z,26.23
2019-03-02T12:47:36.002Z,25.60
2019-03-02T12:50:43.296Z,25.00
2019-03-02T12:54:04.395Z,24.83
2019-03-02T12:57:08.710Z,26.50
2019-03-02T13:00:22.337Z,22.23
2019-03-02T13:03:41.701Z,24.93
2019-03-02T13:08:53.149Z,22.00
2019-03-02T13:12:05.789Z,22.90
2019-03-02T13:15:11.252Z,23.73
2019-03-02T13:18:33.821Z,22.37
2019-03-02T13:21:43.007Z,20.60
2019-03-02T13:24:53.724Z,20.50
2019-03-02T13:28:02.275Z,20.63
2019-03-02T13:32:11.056Z,23.07
2019-03-02T13:35:23.427Z,19.87
2019-03-02T13:38:29.985Z,20.47
2019-03-02T13:42:36.909Z,21.63
2019-03-02T13:45:47.163Z,21.37
2019-03-02T13:49:01.668Z,22.20
2019-03-02T13:52:40.315Z,21.77
2019-03-02T13:55:49.469Z,20.90
2019-03-02T13:58:58.515Z,18.53
2019-03-02T14:02:07.164Z,20.27
2019-03-02T14:06:19.715Z,21.50
2019-03-02T14:09:35.123Z,20.10
2019-03-02T14:12:44.429Z,17.23
2019-03-02T14:16:24.229Z,24.20
2019-03-02T14:19:32.659Z,15.87
2019-03-02T14:22:49.015Z,20.53
2019-03-02T14:26:04.410Z,18.33
2019-03-02T14:29:12.252Z,18.57
2019-03-02T14:32:19.026Z,14.47
2019-03-02T14:35:28.243Z,16.07
2019-03-02T14:38:37.580Z,10.60
2019-03-02T14:41:48.861Z,15.00
2019-03-02T14:45:09.720Z,11.23
2019-03-02T14:49:17.586Z,11.23
2019-03-02T14:52:33.246Z,12.70
2019-03-02T14:55:50.232Z,8.80
2019-03-02T14:59:28.924Z,7.37
2019-03-02T15:03:09.781Z,13.13
2019-03-02T15:06:18.226Z,9.43
2019-03-02T15:09:25.625Z,9.90
2019-03-02T15:12:33.099Z,11.57
2019-03-02T15:15:44.567Z,11.10
2019-03-02T15:19:02.326Z,10.37
2019-03-02T15:22:08.267Z,11.17
2019-03-02T15:25:26.104Z,10.70
2019-03-02T15:28:33.995Z,12.67
2019-03-02T15:31:43.187Z,11.00
2019-03-02T15:34:50.099Z,10.97
2019-03-02T15:38:04.609Z,15.33
2019-03-02T15:41:09.191Z,11.40
2019-03-02T15:44:19.707Z,11.67
2019-03-02T15:47:30.980Z,14.53
2019-03-02T15:50:40.323Z,10.67
2019-03-02T15:53:56.534Z,15.80
2019-03-02T15:57:11.781Z,19.53
2019-03-02T16:00:21.435Z,13.83
2019-03-02T16:04:31.912Z,13.73
2019-03-02T16:07:54.348Z,10.87
2019-03-02T16:11:02.214Z,11.80
2019-03-02T16:14:11.710Z,10.57
2019-03-02T16:17:20.041Z,11.47
2019-03-02T16:20:28.617Z,10.70
2019-03-02T16:25:41.041Z,11.53
2019-03-02T16:28:48.058Z,16.10
2019-03-02T16:31:59.480Z,8.17
2019-03-02T16:35:40.423Z,9.90
2019-03-02T16:38:56.559Z,8.90
2019-03-02T16:42:12.642Z,11.33
2019-03-02T16:45:20.461Z,11.70
2019-03-02T16:48:29.003Z,13.37
2019-03-02T16:51:37.108Z,14.40
2019-03-02T16:54:52.366Z,14.77
2019-03-02T16:58:00.499Z,9.33
2019-03-02T17:01:08.674Z,9.63
2019-03-02T17:06:21.164Z,9.00
2019-03-02T17:09:59.984Z,6.67
2019-03-02T17:13:15.450Z,8.43
2019-03-02T17:16:24.074Z,7.50
2019-03-02T17:19:33.548Z,7.37
2019-03-02T17:22:41.799Z,10.73
2019-03-02T17:25:51.192Z,12.03
2019-03-02T17:29:03.630Z,9.63
2019-03-02T17:32:13.920Z,8.70
2019-03-02T17:35:35.601Z,10.60
2019-03-02T17:38:47.979Z,10.07
2019-03-02T17:41:56.154Z,7.80
2019-03-02T17:45:03.284Z,10.60
2019-03-02T17:48:11.411Z,10.33
2019-03-02T17:51:21.854Z,9.87
2019-03-02T17:56:37.152Z,7.90
2019-03-02T17:59:43.216Z,6.27
2019-03-02T18:02:55.947Z,9.13
2019-03-02T18:06:08.347Z,8.70
2019-03-02T18:09:16.928Z,9.07
2019-03-02T18:13:02.342Z,9.40
2019-03-02T18:16:22.428Z,8.83
2019-03-02T18:19:25.649Z,7.53
2019-03-02T18:22:28.761Z,5.20
2019-03-02T18:25:31.952Z,5.77
2019-03-02T18:28:35.159Z,5.30
2019-03-02T18:31:38.257Z,7.77
2019-03-02T18:34:41.418Z,5.40
2019-03-02T18:37:44.644Z,5.50
2019-03-02T18:40:47.739Z,7.90
2019-03-02T18:43:51.032Z,6.57
2019-03-02T18:46:54.239Z,8.87
2019-03-02T18:50:06.627Z,5.00
2019-03-02T18:53:09.925Z,6.00
2019-03-02T18:56:13.135Z,8.70
2019-03-02T18:59:16.295Z,6.33
2019-03-02T19:02:19.495Z,5.83
2019-03-02T19:05:30.003Z,5.40
2019-03-02T19:08:33.412Z,5.93
2019-03-02T19:11:36.559Z,4.47
2019-03-02T19:14:39.749Z,5.83
2019-03-02T19:17:43.241Z,4.40
2019-03-02T19:20:46.354Z,4.60
2019-03-02T19:23:49.610Z,6.63
2019-03-02T19:26:52.738Z,3.63
2019-03-02T19:29:55.922Z,4.33
2019-03-02T19:32:59.391Z,5.30
2019-03-02T19:36:02.511Z,5.27
2019-03-02T19:39:13.803Z,4.37
2019-03-02T19:42:16.950Z,4.13
2019-03-02T19:45:20.290Z,4.73
2019-03-02T19:48:23.475Z,3.77
2019-03-02T19:51:26.678Z,4.03
2019-03-02T19:54:29.899Z,4.83
2019-03-02T19:57:33.915Z,4.47
2019-03-02T20:00:37.971Z,3.27
2019-03-02T20:03:41.227Z,3.73
2019-03-02T20:06:44.404Z,3.83
2019-03-02T20:09:47.596Z,4.10
2019-03-02T20:12:50.806Z,3.43
2019-03-02T20:15:54.039Z,5.10
2019-03-02T20:18:58.397Z,4.63
2019-03-02T20:22:00.439Z,3.13
2019-03-02T20:25:03.878Z,4.17
2019-03-02T20:28:07.167Z,2.87
2019-03-02T20:31:10.302Z,5.03
2019-03-02T20:34:13.583Z,2.57
2019-03-02T20:37:16.863Z,3.60
2019-03-02T20:40:20.673Z,4.03
2019-03-02T20:43:23.897Z,4.63
2019-03-02T20:46:27.059Z,2.50
2019-03-02T20:49:30.251Z,2.50
2019-03-02T20:52:33.452Z,3.93
2019-03-02T20:55:36.643Z,2.23
2019-03-02T20:58:39.827Z,4.50
2019-03-02T21:01:42.960Z,3.43
2019-03-02T21:04:46.122Z,2.90
2019-03-02T21:07:49.216Z,6.50
2019-03-02T21:10:52.324Z,2.93
2019-03-02T21:13:55.519Z,2.20
2019-03-02T21:16:58.700Z,3.10
2019-03-02T21:20:01.912Z,2.83
2019-03-02T21:23:05.199Z,3.20
2019-03-02T21:26:08.379Z,2.53
2019-03-02T21:29:11.468Z,6.07
2019-03-02T21:32:14.663Z,2.80
2019-03-02T21:35:17.867Z,2.43
2019-03-02T21:38:21.050Z,2.43
2019-03-02T21:41:24.166Z,2.80
2019-03-02T21:44:27.347Z,3.97
2019-03-02T21:47:30.443Z,2.50
2019-03-02T21:50:33.857Z,3.03
2019-03-02T21:53:37.017Z,3.20
2019-03-02T21:56:40.107Z,3.80
2019-03-02T21:59:43.200Z,3.67
2019-03-02T22:02:46.399Z,4.20
2019-03-02T22:05:49.499Z,4.30
2019-03-02T22:08:52.691Z,3.03
2019-03-02T22:11:55.902Z,4.70
2019-03-02T22:14:59.076Z,4.03
2019-03-02T22:18:02.329Z,3.07
2019-03-02T22:21:05.575Z,3.20
2019-03-02T22:24:08.763Z,4.10
2019-03-02T22:27:11.958Z,3.40
2019-03-02T22:30:18.504Z,3.73
2019-03-02T22:33:21.627Z,2.50
2019-03-02T22:36:24.729Z,3.47
2019-03-02T22:39:27.935Z,6.63
2019-03-02T22:42:31.011Z,3.20
2019-03-02T22:45:34.219Z,3.10
2019-03-02T22:48:37.418Z,4.03
2019-03-02T22:51:40.507Z,2.97
2019-03-02T22:54:43.672Z,3.87
2019-03-02T22:57:48.535Z,3.13
2019-03-02T23:01:33.275Z,2.50
2019-03-02T23:04:36.391Z,3.63
2019-03-02T23:07:39.576Z,3.40
2019-03-02T23:10:42.824Z,2.77
2019-03-02T23:13:45.969Z,2.23
2019-03-02T23:16:49.159Z,2.20
2019-03-02T23:19:52.357Z,3.57
2019-03-02T23:22:55.563Z,3.37
2019-03-02T23:25:58.734Z,1.90
2019-03-02T23:29:01.953Z,2.07
2019-03-02T23:32:05.133Z,2.60
2019-03-02T23:35:08.334Z,2.90
2019-03-02T23:38:12.336Z,3.30
2019-03-02T23:41:15.511Z,1.90
2019-03-02T23:44:18.611Z,3.07
2019-03-02T23:47:21.724Z,4.93
2019-03-02T23:50:24.898Z,2.90
2019-03-02T23:53:28.110Z,1.90
2019-03-02T23:56:31.186Z,3.00
2019-03-02T23:59:34.297Z,3.00
